.
WxDataArchive / Data Records for 2006-08-12
2006-08-11 August 2006 2006-08-13

Data Records for Saturday, 12 August 2006

Time	Temp	Chill	HIndex	Humid	Dewpt	 Wind 	HiWind	WindDir	Rain 	Barom 
-----	----	-----	------	-----	-----	------	------	-------	-----	----- 
00:00	61.5	61.5	61.5	79	54.9	0	0	---	0.00	30.013 
00:05	61.2	61.2	61.2	80	55.0	0	0	---	0.00	30.013 
00:10	61.0	61.0	61.0	80	54.8	0	1	112	0.00	30.013 
00:15	61.0	61.0	61.0	80	54.8	0	1	112	0.00	30.013 
00:20	61.0	61.0	61.0	80	54.8	0	1	112	0.00	30.013 
00:25	61.0	61.0	61.0	80	54.8	0	1	112	0.00	30.013 
00:30	61.2	61.2	61.2	80	55.0	0	2	112	0.00	30.013 
00:35	61.2	61.2	61.2	79	54.6	0	2	112	0.00	30.013 
00:40	61.2	61.2	61.2	80	55.0	0	1	112	0.00	30.013 
00:45	61.2	61.2	61.2	80	55.0	0	2	112	0.00	30.012 
00:50	61.2	61.2	61.2	80	55.0	1	1	112	0.00	30.012 
00:55	61.2	61.2	61.2	80	55.0	0	1	112	0.00	30.012 
01:00	61.0	61.0	61.0	80	54.8	1	3	112	0.00	30.006 
01:05	61.2	61.2	61.2	80	55.0	1	2	112	0.00	30.006 
01:10	61.2	61.2	61.2	80	55.0	1	2	112	0.00	30.006 
01:15	61.2	61.2	61.2	80	55.0	0	1	112	0.00	30.006 
01:20	60.9	60.9	60.9	80	54.7	0	1	112	0.00	30.006 
01:25	60.7	60.7	60.7	81	54.8	0	0	---	0.00	30.006 
01:30	60.4	60.4	60.4	82	54.9	0	1	112	0.00	30.008 
01:35	60.4	60.4	60.4	82	54.9	0	1	112	0.00	30.008 
01:40	60.2	60.2	60.2	82	54.7	0	1	112	0.00	30.008 
01:45	60.1	60.1	60.1	83	54.9	0	0	---	0.00	30.001 
01:50	60.1	60.1	60.1	83	54.9	0	0	---	0.00	30.001 
01:55	59.9	59.9	59.9	84	55.0	0	1	112	0.00	30.001 
02:00	59.8	59.8	59.8	84	55.0	0	1	112	0.00	30.000 
02:05	59.8	59.8	59.8	84	55.0	0	2	112	0.00	30.000 
02:10	59.8	59.8	59.8	84	55.0	0	1	112	0.00	30.000 
02:15	59.9	59.9	59.9	84	55.0	0	3	112	0.00	29.999 
02:20	60.1	60.1	60.1	83	54.9	1	3	112	0.00	29.999 
02:25	60.1	60.1	60.1	83	54.9	1	2	112	0.00	29.999 
02:30	60.1	60.1	60.1	83	54.9	0	1	112	0.00	29.998 
02:35	59.9	59.9	59.9	83	54.7	0	1	112	0.00	29.998 
02:40	59.8	59.8	59.8	84	55.0	0	1	112	0.00	29.998 
02:45	59.6	59.6	59.6	84	54.8	0	2	112	0.00	30.003 
02:50	59.6	59.6	59.6	84	54.8	0	1	112	0.00	30.003 
02:55	59.3	59.3	59.3	84	54.5	0	1	112	0.00	30.003 
03:00	59.2	59.2	59.2	84	54.4	0	2	112	0.00	30.010 
03:05	59.0	59.0	59.0	84	54.2	0	1	112	0.00	30.010 
03:10	58.9	58.9	58.9	85	54.4	0	1	112	0.00	30.010 
03:15	58.9	58.9	58.9	85	54.4	0	1	112	0.00	30.013 
03:20	58.7	58.7	58.7	85	54.2	0	1	112	0.00	30.013 
03:25	58.9	58.9	58.9	85	54.4	1	3	68	0.00	30.013 
03:30	59.0	59.0	59.0	84	54.2	0	2	68	0.00	30.019 
03:35	59.0	59.0	59.0	84	54.2	0	1	68	0.00	30.019 
03:40	59.0	59.0	59.0	84	54.2	0	2	68	0.00	30.019 
03:45	59.0	59.0	59.0	84	54.2	0	2	68	0.00	30.027 
03:50	58.9	58.9	58.9	84	54.1	0	3	68	0.00	30.027 
03:55	58.9	58.9	58.9	85	54.4	0	2	68	0.00	30.027 
04:00	58.7	58.7	58.7	85	54.2	0	1	68	0.00	30.028 
04:05	58.6	58.6	58.6	85	54.1	0	1	68	0.00	30.028 
04:10	58.4	58.4	58.4	85	53.9	0	0	---	0.00	30.028 
04:15	58.1	58.1	58.1	86	53.9	0	1	68	0.00	30.029 
04:20	58.0	58.0	58.0	86	53.8	0	1	68	0.00	30.029 
04:25	57.8	57.8	57.8	86	53.6	0	1	68	0.00	30.029 
04:30	57.5	57.5	57.5	87	53.7	0	0	---	0.00	30.030 
04:35	57.3	57.3	57.3	87	53.5	0	1	68	0.00	30.030 
04:40	57.2	57.2	57.2	88	53.7	0	2	68	0.00	30.030 
04:45	57.0	57.0	57.0	88	53.5	0	1	68	0.00	30.031 
04:50	56.9	56.9	56.9	88	53.4	0	1	68	0.00	30.031 
04:55	56.7	56.7	56.7	88	53.2	0	1	68	0.00	30.031 
05:00	56.6	56.6	56.6	88	53.1	0	1	68	0.00	30.031 
05:05	56.5	56.5	56.5	88	53.0	0	1	68	0.00	30.031 
05:10	56.5	56.5	56.5	88	53.0	0	3	68	0.00	30.031 
05:15	56.5	56.5	56.5	88	53.0	0	2	68	0.00	30.030 
05:20	56.3	56.3	56.3	88	52.8	0	1	68	0.00	30.030 
05:25	56.3	56.3	56.3	88	52.8	0	1	68	0.00	30.030 
05:30	56.3	56.3	56.3	88	52.8	0	2	68	0.00	30.033 
05:35	56.3	56.3	56.3	87	52.5	0	2	68	0.00	30.033 
05:40	56.3	56.3	56.3	87	52.5	0	1	90	0.00	30.033 
05:45	56.3	56.3	56.3	87	52.5	0	1	90	0.00	30.035 
05:50	56.3	56.3	56.3	87	52.5	0	1	90	0.00	30.035 
05:55	56.5	56.5	56.5	86	52.4	0	2	90	0.00	30.035 
06:00	56.5	56.5	56.5	86	52.4	0	3	45	0.00	30.030 
06:05	56.5	56.5	56.5	86	52.4	1	3	45	0.00	30.030 
06:10	56.5	56.5	56.5	86	52.4	0	2	90	0.00	30.030 
06:15	56.5	56.5	56.5	86	52.4	1	4	90	0.00	30.033 
06:20	56.5	56.5	56.5	86	52.4	1	4	112	0.00	30.033 
06:25	56.5	56.5	56.5	86	52.4	1	3	112	0.00	30.033 
06:30	56.3	56.3	56.3	86	52.2	1	3	90	0.00	30.034 
06:35	56.3	56.3	56.3	86	52.2	1	3	90	0.00	30.034 
06:40	56.2	56.2	56.2	86	52.1	0	2	90	0.00	30.034 
06:45	56.0	56.0	56.0	87	52.2	0	1	90	0.00	30.041 
06:50	55.9	55.9	55.9	87	52.1	1	3	68	0.00	30.041 
06:55	55.9	55.9	55.9	87	52.1	0	2	68	0.00	30.041 
07:00	55.7	55.7	55.7	88	52.2	0	2	68	0.00	30.044 
07:05	55.7	55.7	55.7	88	52.2	0	2	68	0.00	30.044 
07:10	55.9	55.9	55.9	88	52.4	0	3	90	0.00	30.044 
07:15	55.9	55.9	55.9	88	52.4	0	2	90	0.00	30.044 
07:20	56.0	56.0	56.0	88	52.5	1	2	90	0.00	30.044 
07:25	56.0	56.0	56.0	88	52.5	0	2	90	0.00	30.044 
07:30	56.2	56.2	56.2	88	52.7	0	2	90	0.00	30.052 
07:35	56.6	56.6	56.6	88	53.1	0	2	68	0.00	30.052 
07:40	57.2	57.2	57.2	86	53.0	1	2	68	0.00	30.052 
07:45	58.0	58.0	58.0	84	53.2	1	2	90	0.00	30.049 
07:50	58.6	58.6	58.6	83	53.4	1	3	68	0.00	30.049 
07:55	59.2	59.2	59.2	82	53.7	1	4	90	0.00	30.049 
08:00	59.5	59.5	59.5	82	54.0	1	4	90	0.00	30.049 
08:05	59.9	59.9	59.9	81	54.1	1	3	68	0.00	30.049 
08:10	60.2	60.2	60.2	80	54.0	1	4	112	0.00	30.049 
08:15	60.9	60.9	60.9	78	54.0	1	3	112	0.00	30.060 
08:20	61.2	61.2	61.2	79	54.6	2	5	112	0.00	30.060 
08:25	61.3	61.3	61.3	77	54.0	2	5	90	0.00	30.060 
08:30	61.6	61.6	61.6	76	54.0	2	5	90	0.00	30.062 
08:35	61.8	61.8	61.8	76	54.1	2	6	112	0.00	30.062 
08:40	62.0	62.0	62.0	75	54.0	3	6	90	0.00	30.062 
08:45	62.0	62.0	62.0	74	53.6	3	7	90	0.00	30.059 
08:50	62.1	62.1	62.1	73	53.3	3	5	90	0.00	30.059 
08:55	62.4	62.4	62.4	73	53.6	3	7	90	0.00	30.059 
09:00	62.6	62.6	62.6	72	53.4	2	5	90	0.00	30.064 
09:05	63.2	63.2	63.2	72	54.0	2	6	90	0.00	30.064 
09:10	63.5	63.5	63.5	69	53.1	2	6	90	0.00	30.064 
09:15	64.0	64.0	64.0	66	52.4	3	6	90	0.00	30.066 
09:20	64.2	64.2	64.2	66	52.6	3	6	90	0.00	30.066 
09:25	64.5	64.5	64.5	64	52.0	3	7	90	0.00	30.066 
09:30	64.7	64.7	64.7	64	52.2	2	6	90	0.00	30.067 
09:35	65.5	65.5	65.5	64	53.0	2	4	112	0.00	30.067 
09:40	66.0	66.0	66.0	62	52.6	3	6	90	0.00	30.067 
09:45	66.3	66.3	66.3	62	52.9	3	5	90	0.00	30.068 
09:50	66.8	66.8	66.8	59	52.0	3	7	90	0.00	30.068 
09:55	67.1	67.1	67.1	58	51.8	4	7	90	0.00	30.068 
10:00	67.1	67.1	67.1	59	52.3	3	9	90	0.00	30.065 
10:05	67.6	67.6	67.6	58	52.3	3	6	90	0.00	30.065 
10:10	67.9	67.9	67.9	56	51.6	4	9	90	0.00	30.065 
10:15	67.8	67.8	67.8	57	52.0	4	10	90	0.00	30.064 
10:20	68.3	68.3	68.3	59	53.4	2	5	112	0.00	30.064 
10:25	68.6	68.6	68.6	57	52.7	4	10	90	0.00	30.064 
10:30	68.8	68.8	68.8	56	52.5	4	7	90	0.00	30.063 
10:35	68.9	68.9	68.9	58	53.5	4	10	90	0.00	30.063 
10:40	69.1	69.1	69.1	58	53.7	4	7	90	0.00	30.063 
10:45	69.3	69.3	69.3	57	53.4	5	11	90	0.00	30.062 
10:50	69.3	69.3	69.3	58	53.9	4	11	112	0.00	30.062 
10:55	69.4	69.4	69.4	56	53.0	5	11	90	0.00	30.062 
11:00	69.9	69.9	69.9	57	54.0	4	10	112	0.00	30.060 
11:05	70.8	70.8	70.8	57	54.8	3	7	90	0.00	30.060 
11:10	71.3	71.3	71.3	53	53.3	4	9	90	0.00	30.060 
11:15	71.3	71.3	71.3	54	53.8	4	12	90	0.00	30.063 
11:20	71.5	71.5	71.5	52	52.9	4	9	90	0.00	30.063 
11:25	71.6	71.6	71.6	54	54.1	4	8	90	0.00	30.063 
11:30	72.1	72.1	72.1	51	53.0	4	10	90	0.00	30.061 
11:35	72.3	72.3	72.3	51	53.1	4	10	90	0.00	30.061 
11:40	72.8	72.8	72.8	50	53.1	3	9	90	0.00	30.061 
11:45	73.2	73.2	73.2	47	51.7	3	7	112	0.00	30.061 
11:50	73.3	73.3	73.3	46	51.3	4	9	68	0.00	30.061 
11:55	73.5	73.5	73.5	45	50.8	4	9	90	0.00	30.061 
12:00	73.5	73.5	73.5	46	51.4	3	8	90	0.00	30.063 
12:05	74.2	74.2	74.2	46	52.1	2	6	90	0.00	30.063 
12:10	74.4	74.4	74.4	43	50.4	4	7	90	0.00	30.063 
12:15	74.7	74.7	74.7	44	51.3	3	5	90	0.00	30.061 
12:20	74.7	74.7	74.7	43	50.7	2	4	90	0.00	30.061 
12:25	74.4	74.4	74.4	44	51.0	4	9	90	0.00	30.061 
12:30	74.9	74.9	74.9	46	52.7	3	6	112	0.00	30.057 
12:35	76.0	76.0	77.9	43	51.9	1	4	90	0.00	30.057 
12:40	76.5	76.5	78.1	42	51.7	3	7	90	0.00	30.057 
12:45	76.3	76.3	78.0	42	51.5	3	7	90	0.00	30.050 
12:50	76.5	76.5	78.0	40	50.4	3	11	90	0.00	30.050 
12:55	76.5	76.5	78.0	39	49.7	3	6	90	0.00	30.050 
13:00	76.5	76.5	77.9	37	48.3	4	7	112	0.00	30.046 
13:05	76.3	76.3	77.8	38	48.8	4	12	90	0.00	30.046 
13:10	76.5	76.5	78.0	39	49.7	3	7	90	0.00	30.046 
13:15	77.0	77.0	78.0	36	48.0	3	7	112	0.00	30.053 
13:20	77.2	77.2	78.3	39	50.3	4	10	90	0.00	30.053 
13:25	77.4	77.4	78.3	37	49.1	3	7	112	0.00	30.053 
13:30	77.4	77.4	78.1	34	46.8	3	8	90	0.00	30.047 
13:35	77.6	77.6	78.2	34	47.0	4	7	90	0.00	30.047 
13:40	77.9	77.9	78.3	34	47.2	3	7	90	0.00	30.047 
13:45	77.9	77.9	78.6	38	50.2	3	11	68	0.00	30.042 
13:50	77.9	77.9	78.4	35	48.0	4	11	90	0.00	30.042 
13:55	78.3	78.3	78.6	36	49.1	2	4	112	0.00	30.042 
14:00	78.5	78.5	78.4	30	44.5	4	9	90	0.00	30.048 
14:05	78.5	78.5	78.6	34	47.8	3	9	90	0.00	30.048 
14:10	78.6	78.6	78.7	35	48.6	3	7	90	0.00	30.048 
14:15	78.8	78.8	78.5	29	43.8	3	7	112	0.00	30.043 
14:20	79.0	79.0	78.8	33	47.4	2	6	112	0.00	30.043 
14:25	79.2	79.2	78.8	31	45.9	3	7	90	0.00	30.043 
14:30	79.0	79.0	78.8	32	46.6	3	8	90	0.00	30.044 
14:35	79.4	79.4	79.0	32	46.9	2	6	112	0.00	30.044 
14:40	79.8	79.8	79.1	30	45.6	3	7	112	0.00	30.044 
14:45	80.1	80.1	79.3	31	46.7	2	9	112	0.00	30.039 
14:50	80.1	80.1	79.3	31	46.7	3	10	90	0.00	30.039 
14:55	79.8	79.8	79.0	29	44.7	3	9	112	0.00	30.039 
15:00	79.9	79.9	79.1	29	44.8	2	9	90	0.00	30.037 
15:05	80.5	80.5	79.6	32	47.9	1	5	90	0.00	30.037 
15:10	80.9	80.9	80.0	33	49.1	2	5	90	0.00	30.037 
15:15	80.9	80.9	80.0	33	49.1	3	9	90	0.00	30.027 
15:20	80.5	80.5	79.4	28	44.4	3	6	112	0.00	30.027 
15:25	80.3	80.3	79.2	28	44.2	3	7	90	0.00	30.027 
15:30	79.8	79.8	79.0	29	44.7	3	7	90	0.00	30.028 
15:35	80.5	80.5	79.3	27	43.4	3	10	90	0.00	30.028 
15:40	80.7	80.7	79.5	28	44.5	4	12	90	0.00	30.028 
15:45	80.7	80.7	79.3	25	41.6	3	6	90	0.00	30.026 
15:50	80.7	80.7	79.4	27	43.6	2	7	90	0.00	30.026 
15:55	80.9	80.9	79.6	28	44.7	1	4	112	0.00	30.026 
16:00	81.2	81.2	79.9	30	46.8	1	5	90	0.00	30.026 
16:05	81.1	81.1	79.7	28	44.9	3	9	90	0.00	30.026 
16:10	81.1	81.1	79.7	27	43.9	2	7	68	0.00	30.026 
16:15	81.2	81.2	80.0	31	47.7	2	5	90	0.00	30.025 
16:20	81.1	81.1	79.8	29	45.8	2	6	112	0.00	30.025 
16:25	81.1	81.1	79.6	26	42.9	3	7	90	0.00	30.025 
16:30	80.9	80.9	79.5	27	43.8	3	6	90	0.00	30.027 
16:35	80.9	80.9	79.8	31	47.4	1	4	90	0.00	30.027 
16:40	81.1	81.1	79.9	30	46.7	2	5	90	0.00	30.027 
16:45	80.9	80.9	79.8	31	47.4	4	10	112	0.00	30.027 
16:50	80.9	80.9	80.0	33	49.1	2	5	90	0.00	30.027 
16:55	81.1	81.1	80.1	33	49.2	2	7	90	0.00	30.027 
17:00	81.1	81.1	79.9	31	47.6	3	6	112	0.00	30.020 
17:05	81.1	81.1	79.7	27	43.9	3	7	112	0.00	30.020 
17:10	81.1	81.1	79.7	28	44.9	2	4	90	0.00	30.020 
17:15	80.9	80.9	79.5	27	43.8	2	5	90	0.00	30.015 
17:20	81.1	81.1	79.7	28	44.9	2	7	90	0.00	30.015 
17:25	80.7	80.7	79.4	27	43.6	3	9	90	0.00	30.015 
17:30	80.5	80.5	79.2	26	42.4	2	6	90	0.00	30.016 
17:35	80.7	80.7	79.5	28	44.5	2	4	90	0.00	30.016 
17:40	80.9	80.9	79.5	26	42.8	1	4	90	0.00	30.016 
17:45	80.7	80.7	79.3	25	41.6	2	4	90	0.00	30.016 
17:50	80.5	80.5	79.4	28	44.4	2	6	112	0.00	30.016 
17:55	80.3	80.3	79.2	27	43.2	2	5	90	0.00	30.016 
18:00	80.3	80.3	79.1	26	42.3	2	5	90	0.00	30.020 
18:05	80.3	80.3	79.2	28	44.2	2	5	90	0.00	30.020 
18:10	79.9	79.9	78.9	27	42.9	3	6	112	0.00	30.020 
18:15	79.8	79.8	79.0	29	44.7	2	7	68	0.00	30.018 
18:20	79.6	79.6	78.8	28	43.6	2	6	68	0.00	30.018 
18:25	79.2	79.2	78.7	29	44.2	2	5	90	0.00	30.018 
18:30	79.0	79.0	78.5	28	43.1	2	5	90	0.00	30.017 
18:35	78.8	78.8	78.3	27	42.0	2	6	112	0.00	30.017 
18:40	78.6	78.6	78.3	28	42.7	3	5	112	0.00	30.017 
18:45	78.5	78.5	78.2	27	41.7	3	7	90	0.00	30.016 
18:50	78.3	78.3	78.3	30	44.3	3	5	90	0.00	30.016 
18:55	78.1	78.1	78.2	31	45.0	3	7	90	0.00	30.016 
19:00	77.7	77.7	78.0	30	43.8	2	5	90	0.00	30.016 
19:05	77.7	77.7	77.9	29	42.9	3	10	90	0.00	30.016 
19:10	77.6	77.6	77.9	30	43.7	2	5	90	0.00	30.016 
19:15	77.4	77.4	77.8	30	43.5	2	5	112	0.00	30.013 
19:20	77.4	77.4	78.0	32	45.2	2	6	112	0.00	30.013 
19:25	77.0	77.0	77.7	31	44.0	3	5	90	0.00	30.013 
19:30	76.8	76.8	77.6	30	43.0	2	5	112	0.00	30.014 
19:35	76.5	76.5	77.8	35	46.8	1	3	90	0.00	30.014 
19:40	76.1	76.1	77.7	36	47.2	2	4	90	0.00	30.014 
19:45	75.8	75.8	77.6	36	46.9	2	4	112	0.00	30.012 
19:50	75.4	75.4	77.5	37	47.3	1	3	112	0.00	30.012 
19:55	75.1	75.1	77.4	37	47.0	1	3	112	0.00	30.012 
20:00	74.9	74.9	74.9	38	47.6	1	3	68	0.00	30.013 
20:05	74.6	74.6	74.6	39	48.0	1	5	90	0.00	30.013 
20:10	74.2	74.2	74.2	42	49.6	0	2	90	0.00	30.013 
20:15	73.7	73.7	73.7	41	48.5	1	4	90	0.00	30.011 
20:20	73.3	73.3	73.3	43	49.4	1	2	90	0.00	30.011 
20:25	72.8	72.8	72.8	42	48.4	2	4	68	0.00	30.011 
20:30	72.5	72.5	72.5	43	48.7	1	4	90	0.00	30.010 
20:35	72.0	72.0	72.0	44	48.9	1	5	112	0.00	30.010 
20:40	71.5	71.5	71.5	45	49.0	1	3	112	0.00	30.010 
20:45	71.1	71.1	71.1	45	48.7	1	5	112	0.00	30.009 
20:50	70.6	70.6	70.6	45	48.2	1	2	112	0.00	30.009 
20:55	70.3	70.3	70.3	46	48.5	1	2	90	0.00	30.009 
21:00	69.6	69.6	69.6	48	49.0	0	1	90	0.00	30.008 
21:05	69.1	69.1	69.1	48	48.6	0	1	90	0.00	30.008 
21:10	68.6	68.6	68.6	50	49.2	1	2	90	0.00	30.008 
21:15	68.1	68.1	68.1	51	49.3	1	2	90	0.00	30.002 
21:20	67.6	67.6	67.6	51	48.8	1	5	90	0.00	30.002 
21:25	67.3	67.3	67.3	52	49.1	1	2	90	0.00	30.002 
21:30	66.9	66.9	66.9	52	48.7	0	2	90	0.00	30.003 
21:35	66.6	66.6	66.6	53	48.9	0	1	90	0.00	30.003 
21:40	66.3	66.3	66.3	53	48.6	0	2	90	0.00	30.003 
21:45	65.8	65.8	65.8	54	48.7	0	3	90	0.00	30.011 
21:50	65.6	65.6	65.6	54	48.5	1	3	90	0.00	30.011 
21:55	65.6	65.6	65.6	54	48.5	1	3	112	0.00	30.011 
22:00	65.3	65.3	65.3	54	48.2	0	2	112	0.00	30.014 
22:05	65.0	65.0	65.0	54	47.9	0	0	---	0.00	30.014 
22:10	64.5	64.5	64.5	55	48.0	0	0	---	0.00	30.014 
22:15	63.9	63.9	63.9	56	47.9	0	0	---	0.00	30.023 
22:20	63.4	63.4	63.4	57	47.9	0	0	---	0.00	30.023 
22:25	62.9	62.9	62.9	58	47.9	0	0	---	0.00	30.023 
22:30	62.4	62.4	62.4	59	47.9	0	0	---	0.00	30.027 
22:35	61.8	61.8	61.8	60	47.8	0	0	---	0.00	30.027 
22:40	61.3	61.3	61.3	61	47.7	0	0	---	0.00	30.027 
22:45	60.9	60.9	60.9	62	47.8	0	0	---	0.00	30.033 
22:50	60.5	60.5	60.5	63	47.8	0	0	---	0.00	30.033 
22:55	60.1	60.1	60.1	64	47.9	0	0	---	0.00	30.033 
23:00	59.8	59.8	59.8	65	48.0	0	0	---	0.00	30.031 
23:05	59.5	59.5	59.5	65	47.7	0	0	---	0.00	30.031 
23:10	59.2	59.2	59.2	65	47.4	0	0	---	0.00	30.031 
23:15	58.7	58.7	58.7	64	46.6	0	0	---	0.00	30.028 
23:20	58.4	58.4	58.4	65	46.7	0	0	---	0.00	30.028 
23:25	58.1	58.1	58.1	65	46.4	0	0	---	0.00	30.028 
23:30	58.0	58.0	58.0	67	47.1	0	0	---	0.00	30.028 
23:35	57.8	57.8	57.8	68	47.3	0	0	---	0.00	30.028 
23:40	57.6	57.6	57.6	68	47.1	0	0	---	0.00	30.028 
23:45	57.6	57.6	57.6	69	47.5	0	0	---	0.00	30.033 
23:50	57.5	57.5	57.5	70	47.8	0	0	---	0.00	30.033 
23:55	57.2	57.2	57.2	70	47.5	0	0	---	0.00	30.033 

CoCoRaHS
IN-AL-39
A2 Web Hosting
Creative Commons License
GoDaddy
Look for:

loaded 2017-10-17 00:24:03 • last modified 2010-11-18 10:43:29
Privacy PolicyDisclaimer
• wx.awcolley.com is powered by PmWiki v.2002016 •
• all content (unless otherwise noted) © 2017 A W Colley